sensor_id;sensor_type;location;lat;lon;timestamp;temperature;humidity
23560;DHT22;11958;50.836;4.438;2022-08-16T00:00:22;22.00;63.50
23560;DHT22;11958;50.836;4.438;2022-08-16T00:06:37;21.90;63.40
23560;DHT22;11958;50.836;4.438;2022-08-16T00:12:46;21.80;64.20
23560;DHT22;11958;50.836;4.438;2022-08-16T00:18:40;21.60;65.30
23560;DHT22;11958;50.836;4.438;2022-08-16T00:21:38;21.30;66.10
23560;DHT22;11958;50.836;4.438;2022-08-16T00:32:03;21.00;67.70
23560;DHT22;11958;50.836;4.438;2022-08-16T00:35:17;21.40;66.40
23560;DHT22;11958;50.836;4.438;2022-08-16T00:37:59;21.60;66.10
23560;DHT22;11958;50.836;4.438;2022-08-16T00:40:50;21.60;65.20
23560;DHT22;11958;50.836;4.438;2022-08-16T00:43:56;21.70;65.20
23560;DHT22;11958;50.836;4.438;2022-08-16T00:53:38;21.10;67.30
23560;DHT22;11958;50.836;4.438;2022-08-16T00:56:52;21.00;67.80
23560;DHT22;11958;50.836;4.438;2022-08-16T00:59:38;20.70;70.30
23560;DHT22;11958;50.836;4.438;2022-08-16T01:12:13;21.30;66.40
23560;DHT22;11958;50.836;4.438;2022-08-16T01:14:58;21.20;66.60
23560;DHT22;11958;50.836;4.438;2022-08-16T01:17:36;21.20;66.50
23560;DHT22;11958;50.836;4.438;2022-08-16T01:20:10;21.20;66.80
23560;DHT22;11958;50.836;4.438;2022-08-16T01:25:33;21.30;66.50
23560;DHT22;11958;50.836;4.438;2022-08-16T01:28:08;21.10;66.30
23560;DHT22;11958;50.836;4.438;2022-08-16T01:31:10;21.00;66.60
23560;DHT22;11958;50.836;4.438;2022-08-16T01:33:37;21.10;66.80
23560;DHT22;11958;50.836;4.438;2022-08-16T01:36:08;21.10;66.10
23560;DHT22;11958;50.836;4.438;2022-08-16T01:38:40;21.10;66.20
23560;DHT22;11958;50.836;4.438;2022-08-16T01:41:09;20.90;68.40
23560;DHT22;11958;50.836;4.438;2022-08-16T01:43:38;21.00;66.80
23560;DHT22;11958;50.836;4.438;2022-08-16T01:46:08;20.70;68.40
23560;DHT22;11958;50.836;4.438;2022-08-16T01:48:34;20.70;68.60
23560;DHT22;11958;50.836;4.438;2022-08-16T01:51:01;20.90;66.60
23560;DHT22;11958;50.836;4.438;2022-08-16T01:53:27;21.00;66.20
23560;DHT22;11958;50.836;4.438;2022-08-16T01:55:54;20.90;66.20
23560;DHT22;11958;50.836;4.438;2022-08-16T01:58:21;20.90;65.90
23560;DHT22;11958;50.836;4.438;2022-08-16T02:14:34;20.70;67.80
23560;DHT22;11958;50.836;4.438;2022-08-16T02:17:23;20.40;69.10
23560;DHT22;11958;50.836;4.438;2022-08-16T02:20:32;20.20;69.80
23560;DHT22;11958;50.836;4.438;2022-08-16T02:26:49;20.30;69.10
23560;DHT22;11958;50.836;4.438;2022-08-16T02:29:37;20.10;69.50
23560;DHT22;11958;50.836;4.438;2022-08-16T02:32:04;20.20;69.50
23560;DHT22;11958;50.836;4.438;2022-08-16T02:34:29;20.30;69.30
23560;DHT22;11958;50.836;4.438;2022-08-16T02:36:55;20.40;69.00
23560;DHT22;11958;50.836;4.438;2022-08-16T02:39:21;20.50;69.20
23560;DHT22;11958;50.836;4.438;2022-08-16T02:41:48;20.20;69.80
23560;DHT22;11958;50.836;4.438;2022-08-16T02:44:15;20.10;69.90
23560;DHT22;11958;50.836;4.438;2022-08-16T02:46:42;19.90;70.90
23560;DHT22;11958;50.836;4.438;2022-08-16T02:49:08;19.80;71.00
23560;DHT22;11958;50.836;4.438;2022-08-16T02:51:36;19.90;71.20
23560;DHT22;11958;50.836;4.438;2022-08-16T02:54:03;20.00;70.30
23560;DHT22;11958;50.836;4.438;2022-08-16T02:56:29;19.90;71.10
23560;DHT22;11958;50.836;4.438;2022-08-16T02:58:55;20.10;70.00
23560;DHT22;11958;50.836;4.438;2022-08-16T03:01:24;19.90;70.80
23560;DHT22;11958;50.836;4.438;2022-08-16T03:03:54;19.80;70.40
23560;DHT22;11958;50.836;4.438;2022-08-16T03:06:21;19.70;71.20
23560;DHT22;11958;50.836;4.438;2022-08-16T03:08:49;20.00;70.10
23560;DHT22;11958;50.836;4.438;2022-08-16T03:11:16;20.00;70.40
23560;DHT22;11958;50.836;4.438;2022-08-16T03:13:43;20.30;69.10
23560;DHT22;11958;50.836;4.438;2022-08-16T03:16:09;20.40;69.20
23560;DHT22;11958;50.836;4.438;2022-08-16T03:18:35;20.20;69.30
23560;DHT22;11958;50.836;4.438;2022-08-16T03:21:00;20.30;69.50
23560;DHT22;11958;50.836;4.438;2022-08-16T03:23:26;20.20;69.60
23560;DHT22;11958;50.836;4.438;2022-08-16T03:25:52;20.10;69.90
23560;DHT22;11958;50.836;4.438;2022-08-16T03:28:18;20.10;69.60
23560;DHT22;11958;50.836;4.438;2022-08-16T03:30:45;20.10;70.50
23560;DHT22;11958;50.836;4.438;2022-08-16T03:33:11;19.90;70.60
23560;DHT22;11958;50.836;4.438;2022-08-16T03:35:38;19.80;70.60
23560;DHT22;11958;50.836;4.438;2022-08-16T03:38:07;20.20;69.50
23560;DHT22;11958;50.836;4.438;2022-08-16T03:40:34;20.40;68.90
23560;DHT22;11958;50.836;4.438;2022-08-16T03:43:05;20.30;68.60
23560;DHT22;11958;50.836;4.438;2022-08-16T03:45:34;20.10;69.40
23560;DHT22;11958;50.836;4.438;2022-08-16T03:48:01;20.10;69.60
23560;DHT22;11958;50.836;4.438;2022-08-16T03:50:28;20.10;69.50
23560;DHT22;11958;50.836;4.438;2022-08-16T03:52:54;20.00;69.60
23560;DHT22;11958;50.836;4.438;2022-08-16T03:55:20;20.10;69.00
23560;DHT22;11958;50.836;4.438;2022-08-16T03:57:51;20.00;69.60
23560;DHT22;11958;50.836;4.438;2022-08-16T04:00:21;20.00;69.50
23560;DHT22;11958;50.836;4.438;2022-08-16T04:02:47;20.10;69.40
23560;DHT22;11958;50.836;4.438;2022-08-16T04:05:15;20.00;69.20
23560;DHT22;11958;50.836;4.438;2022-08-16T04:07:41;20.00;70.20
23560;DHT22;11958;50.836;4.438;2022-08-16T04:10:08;20.10;69.90
23560;DHT22;11958;50.836;4.438;2022-08-16T04:12:34;20.00;69.80
23560;DHT22;11958;50.836;4.438;2022-08-16T04:15:00;20.10;69.80
23560;DHT22;11958;50.836;4.438;2022-08-16T04:17:27;20.00;69.80
23560;DHT22;11958;50.836;4.438;2022-08-16T04:19:54;20.00;70.10
23560;DHT22;11958;50.836;4.438;2022-08-16T04:22:20;19.90;69.80
23560;DHT22;11958;50.836;4.438;2022-08-16T04:28:05;20.00;69.60
23560;DHT22;11958;50.836;4.438;2022-08-16T04:30:31;20.00;69.90
23560;DHT22;11958;50.836;4.438;2022-08-16T04:32:56;19.90;70.20
23560;DHT22;11958;50.836;4.438;2022-08-16T04:35:22;19.80;70.70
23560;DHT22;11958;50.836;4.438;2022-08-16T04:37:49;20.00;69.70
23560;DHT22;11958;50.836;4.438;2022-08-16T04:40:16;20.10;69.30
23560;DHT22;11958;50.836;4.438;2022-08-16T04:42:43;20.20;69.70
23560;DHT22;11958;50.836;4.438;2022-08-16T04:45:11;20.10;69.80
23560;DHT22;11958;50.836;4.438;2022-08-16T04:47:42;20.20;69.40
23560;DHT22;11958;50.836;4.438;2022-08-16T04:50:15;20.20;69.10
23560;DHT22;11958;50.836;4.438;2022-08-16T04:52:46;20.20;69.20
23560;DHT22;11958;50.836;4.438;2022-08-16T04:55:18;20.00;70.00
23560;DHT22;11958;50.836;4.438;2022-08-16T04:57:46;19.90;70.40
23560;DHT22;11958;50.836;4.438;2022-08-16T05:00:16;19.90;70.20
23560;DHT22;11958;50.836;4.438;2022-08-16T05:02:44;20.00;70.00
23560;DHT22;11958;50.836;4.438;2022-08-16T05:05:10;20.00;70.40
23560;DHT22;11958;50.836;4.438;2022-08-16T05:07:46;20.00;70.30
23560;DHT22;11958;50.836;4.438;2022-08-16T05:10:15;20.20;69.90
23560;DHT22;11958;50.836;4.438;2022-08-16T05:12:53;20.00;69.80
23560;DHT22;11958;50.836;4.438;2022-08-16T05:17:56;20.30;68.90
23560;DHT22;11958;50.836;4.438;2022-08-16T05:20:23;20.40;68.70
23560;DHT22;11958;50.836;4.438;2022-08-16T05:22:58;20.20;69.50
23560;DHT22;11958;50.836;4.438;2022-08-16T05:25:26;20.40;68.70
23560;DHT22;11958;50.836;4.438;2022-08-16T05:27:52;20.60;67.80
23560;DHT22;11958;50.836;4.438;2022-08-16T05:30:29;20.80;67.20
23560;DHT22;11958;50.836;4.438;2022-08-16T05:33:11;20.80;67.60
23560;DHT22;11958;50.836;4.438;2022-08-16T05:35:36;21.00;65.50
23560;DHT22;11958;50.836;4.438;2022-08-16T05:38:02;20.80;66.60
23560;DHT22;11958;50.836;4.438;2022-08-16T05:40:28;20.60;67.60
23560;DHT22;11958;50.836;4.438;2022-08-16T05:43:03;20.70;67.10
23560;DHT22;11958;50.836;4.438;2022-08-16T05:45:28;21.00;65.10
23560;DHT22;11958;50.836;4.438;2022-08-16T05:47:55;21.20;64.20
23560;DHT22;11958;50.836;4.438;2022-08-16T05:50:21;21.10;63.90
23560;DHT22;11958;50.836;4.438;2022-08-16T05:52:47;21.20;64.70
23560;DHT22;11958;50.836;4.438;2022-08-16T05:55:17;21.20;64.40
23560;DHT22;11958;50.836;4.438;2022-08-16T05:57:46;20.90;64.40
23560;DHT22;11958;50.836;4.438;2022-08-16T06:00:15;21.00;64.80
23560;DHT22;11958;50.836;4.438;2022-08-16T06:02:58;21.20;64.80
23560;DHT22;11958;50.836;4.438;2022-08-16T06:05:28;21.20;63.70
23560;DHT22;11958;50.836;4.438;2022-08-16T06:07:54;21.30;63.10
23560;DHT22;11958;50.836;4.438;2022-08-16T06:10:20;21.30;63.60
23560;DHT22;11958;50.836;4.438;2022-08-16T06:12:45;21.50;62.80
23560;DHT22;11958;50.836;4.438;2022-08-16T06:15:14;21.60;65.70
23560;DHT22;11958;50.836;4.438;2022-08-16T06:17:41;21.60;62.60
23560;DHT22;11958;50.836;4.438;2022-08-16T06:20:07;21.70;61.80
23560;DHT22;11958;50.836;4.438;2022-08-16T06:22:38;21.70;61.60
23560;DHT22;11958;50.836;4.438;2022-08-16T06:25:04;21.80;60.90
23560;DHT22;11958;50.836;4.438;2022-08-16T06:27:30;21.80;61.20
23560;DHT22;11958;50.836;4.438;2022-08-16T06:29:56;22.00;61.00
23560;DHT22;11958;50.836;4.438;2022-08-16T06:32:21;22.10;61.20
23560;DHT22;11958;50.836;4.438;2022-08-16T06:34:47;22.30;59.90
23560;DHT22;11958;50.836;4.438;2022-08-16T06:37:22;22.30;60.30
23560;DHT22;11958;50.836;4.438;2022-08-16T06:39:57;22.30;59.60
23560;DHT22;11958;50.836;4.438;2022-08-16T06:42:38;22.40;60.00
23560;DHT22;11958;50.836;4.438;2022-08-16T06:45:16;22.50;58.90
23560;DHT22;11958;50.836;4.438;2022-08-16T06:47:54;22.10;60.00
23560;DHT22;11958;50.836;4.438;2022-08-16T06:50:29;22.10;59.60
23560;DHT22;11958;50.836;4.438;2022-08-16T06:52:55;22.30;59.20
23560;DHT22;11958;50.836;4.438;2022-08-16T06:55:20;22.30;58.50
23560;DHT22;11958;50.836;4.438;2022-08-16T06:57:58;22.20;58.70
23560;DHT22;11958;50.836;4.438;2022-08-16T07:00:42;22.40;58.20
23560;DHT22;11958;50.836;4.438;2022-08-16T07:03:11;22.50;58.40
23560;DHT22;11958;50.836;4.438;2022-08-16T07:05:45;22.80;58.00
23560;DHT22;11958;50.836;4.438;2022-08-16T07:08:11;22.90;56.50
23560;DHT22;11958;50.836;4.438;2022-08-16T07:10:36;22.80;57.50
23560;DHT22;11958;50.836;4.438;2022-08-16T07:13:03;22.80;57.00
23560;DHT22;11958;50.836;4.438;2022-08-16T07:15:29;22.80;56.00
23560;DHT22;11958;50.836;4.438;2022-08-16T07:17:58;23.30;55.60
23560;DHT22;11958;50.836;4.438;2022-08-16T07:20:25;23.70;53.70
23560;DHT22;11958;50.836;4.438;2022-08-16T07:22:52;23.60;53.40
23560;DHT22;11958;50.836;4.438;2022-08-16T07:25:20;23.60;52.80
23560;DHT22;11958;50.836;4.438;2022-08-16T07:27:48;23.70;52.40
23560;DHT22;11958;50.836;4.438;2022-08-16T07:30:15;23.70;52.00
23560;DHT22;11958;50.836;4.438;2022-08-16T07:32:41;24.10;51.20
23560;DHT22;11958;50.836;4.438;2022-08-16T07:35:07;24.40;49.10
23560;DHT22;11958;50.836;4.438;2022-08-16T07:37:33;24.60;48.30
23560;DHT22;11958;50.836;4.438;2022-08-16T07:42:30;24.90;49.10
23560;DHT22;11958;50.836;4.438;2022-08-16T07:44:56;24.60;47.80
23560;DHT22;11958;50.836;4.438;2022-08-16T07:47:25;24.70;48.30
23560;DHT22;11958;50.836;4.438;2022-08-16T07:49:55;24.90;47.20
23560;DHT22;11958;50.836;4.438;2022-08-16T07:52:21;25.00;47.00
23560;DHT22;11958;50.836;4.438;2022-08-16T07:54:54;24.80;47.20
23560;DHT22;11958;50.836;4.438;2022-08-16T07:57:20;24.50;46.20
23560;DHT22;11958;50.836;4.438;2022-08-16T07:59:55;24.60;47.40
23560;DHT22;11958;50.836;4.438;2022-08-16T08:02:38;24.70;46.60
23560;DHT22;11958;50.836;4.438;2022-08-16T08:05:04;24.70;45.50
23560;DHT22;11958;50.836;4.438;2022-08-16T08:07:30;24.80;46.40
23560;DHT22;11958;50.836;4.438;2022-08-16T08:09:57;25.00;46.70
23560;DHT22;11958;50.836;4.438;2022-08-16T08:12:23;25.10;46.60
23560;DHT22;11958;50.836;4.438;2022-08-16T08:14:49;25.20;46.90
23560;DHT22;11958;50.836;4.438;2022-08-16T08:17:15;25.30;45.90
23560;DHT22;11958;50.836;4.438;2022-08-16T08:19:41;25.30;46.00
23560;DHT22;11958;50.836;4.438;2022-08-16T08:22:07;25.70;44.30
23560;DHT22;11958;50.836;4.438;2022-08-16T08:24:34;25.60;43.60
23560;DHT22;11958;50.836;4.438;2022-08-16T08:27:05;25.50;43.90
23560;DHT22;11958;50.836;4.438;2022-08-16T08:29:33;25.50;44.10
23560;DHT22;11958;50.836;4.438;2022-08-16T08:31:59;25.40;41.80
23560;DHT22;11958;50.836;4.438;2022-08-16T08:34:26;25.30;42.70
23560;DHT22;11958;50.836;4.438;2022-08-16T08:36:52;25.40;42.80
23560;DHT22;11958;50.836;4.438;2022-08-16T08:39:18;25.70;42.40
23560;DHT22;11958;50.836;4.438;2022-08-16T08:41:44;25.90;42.30
23560;DHT22;11958;50.836;4.438;2022-08-16T08:44:12;25.80;42.90
23560;DHT22;11958;50.836;4.438;2022-08-16T08:46:44;26.00;42.20
23560;DHT22;11958;50.836;4.438;2022-08-16T08:49:11;26.00;42.60
23560;DHT22;11958;50.836;4.438;2022-08-16T08:51:37;26.30;42.30
23560;DHT22;11958;50.836;4.438;2022-08-16T08:54:06;26.50;41.50
23560;DHT22;11958;50.836;4.438;2022-08-16T08:56:34;26.60;39.40
23560;DHT22;11958;50.836;4.438;2022-08-16T08:59:03;27.00;39.20
23560;DHT22;11958;50.836;4.438;2022-08-16T09:01:31;26.70;39.30
23560;DHT22;11958;50.836;4.438;2022-08-16T09:03:59;26.80;40.20
23560;DHT22;11958;50.836;4.438;2022-08-16T09:09:11;27.10;39.50
23560;DHT22;11958;50.836;4.438;2022-08-16T09:11:36;27.30;38.40
23560;DHT22;11958;50.836;4.438;2022-08-16T09:14:03;27.10;39.10
23560;DHT22;11958;50.836;4.438;2022-08-16T09:19:00;27.00;38.60
23560;DHT22;11958;50.836;4.438;2022-08-16T09:21:29;27.00;38.70
23560;DHT22;11958;50.836;4.438;2022-08-16T09:24:05;27.40;39.20
23560;DHT22;11958;50.836;4.438;2022-08-16T09:26:46;27.80;37.70
23560;DHT22;11958;50.836;4.438;2022-08-16T09:29:18;27.70;38.30
23560;DHT22;11958;50.836;4.438;2022-08-16T09:31:55;27.40;38.20
23560;DHT22;11958;50.836;4.438;2022-08-16T09:34:22;27.40;39.00
23560;DHT22;11958;50.836;4.438;2022-08-16T09:36:47;27.40;38.50
23560;DHT22;11958;50.836;4.438;2022-08-16T09:39:14;27.40;39.00
23560;DHT22;11958;50.836;4.438;2022-08-16T09:41:40;27.20;38.80
23560;DHT22;11958;50.836;4.438;2022-08-16T09:44:05;27.20;39.20
23560;DHT22;11958;50.836;4.438;2022-08-16T09:46:32;27.20;39.80
23560;DHT22;11958;50.836;4.438;2022-08-16T09:48:58;27.20;39.80
23560;DHT22;11958;50.836;4.438;2022-08-16T09:51:24;27.30;38.80
23560;DHT22;11958;50.836;4.438;2022-08-16T09:53:54;27.20;38.90
23560;DHT22;11958;50.836;4.438;2022-08-16T09:56:29;26.90;39.90
23560;DHT22;11958;50.836;4.438;2022-08-16T09:59:03;27.00;39.90
23560;DHT22;11958;50.836;4.438;2022-08-16T10:01:29;28.50;39.10
23560;DHT22;11958;50.836;4.438;2022-08-16T10:03:56;28.60;37.80
23560;DHT22;11958;50.836;4.438;2022-08-16T10:06:23;27.90;38.60
23560;DHT22;11958;50.836;4.438;2022-08-16T10:08:56;27.80;40.90
23560;DHT22;11958;50.836;4.438;2022-08-16T10:11:21;27.80;39.90
23560;DHT22;11958;50.836;4.438;2022-08-16T10:14:18;27.80;40.20
23560;DHT22;11958;50.836;4.438;2022-08-16T10:17:15;27.30;41.20
23560;DHT22;11958;50.836;4.438;2022-08-16T10:19:41;27.30;42.20
23560;DHT22;11958;50.836;4.438;2022-08-16T10:22:13;27.20;40.60
23560;DHT22;11958;50.836;4.438;2022-08-16T10:24:58;27.40;41.40
23560;DHT22;11958;50.836;4.438;2022-08-16T10:27:42;27.20;41.90
23560;DHT22;11958;50.836;4.438;2022-08-16T10:30:11;27.20;41.30
23560;DHT22;11958;50.836;4.438;2022-08-16T10:32:52;27.20;41.90
23560;DHT22;11958;50.836;4.438;2022-08-16T10:35:18;27.50;40.60
23560;DHT22;11958;50.836;4.438;2022-08-16T10:37:46;27.80;41.90
23560;DHT22;11958;50.836;4.438;2022-08-16T10:40:12;28.20;41.20
23560;DHT22;11958;50.836;4.438;2022-08-16T10:42:47;28.40;41.00
23560;DHT22;11958;50.836;4.438;2022-08-16T10:45:20;28.60;39.70
23560;DHT22;11958;50.836;4.438;2022-08-16T10:47:55;28.50;39.80
23560;DHT22;11958;50.836;4.438;2022-08-16T10:50:33;28.80;39.40
23560;DHT22;11958;50.836;4.438;2022-08-16T10:53:15;28.90;38.60
23560;DHT22;11958;50.836;4.438;2022-08-16T10:55:48;28.80;38.60
23560;DHT22;11958;50.836;4.438;2022-08-16T10:58:14;29.00;37.90
23560;DHT22;11958;50.836;4.438;2022-08-16T11:00:49;29.40;36.50
23560;DHT22;11958;50.836;4.438;2022-08-16T11:06:11;28.80;37.20
23560;DHT22;11958;50.836;4.438;2022-08-16T11:08:43;29.00;36.90
23560;DHT22;11958;50.836;4.438;2022-08-16T11:11:21;28.70;36.60
23560;DHT22;11958;50.836;4.438;2022-08-16T11:13:47;29.00;38.10
23560;DHT22;11958;50.836;4.438;2022-08-16T11:16:20;28.90;37.40
23560;DHT22;11958;50.836;4.438;2022-08-16T11:18:46;29.10;36.60
23560;DHT22;11958;50.836;4.438;2022-08-16T11:21:13;29.20;36.10
23560;DHT22;11958;50.836;4.438;2022-08-16T11:23:42;29.40;35.90
23560;DHT22;11958;50.836;4.438;2022-08-16T11:26:08;30.20;35.00
23560;DHT22;11958;50.836;4.438;2022-08-16T11:28:34;30.60;34.00
23560;DHT22;11958;50.836;4.438;2022-08-16T11:31:01;30.70;33.40
23560;DHT22;11958;50.836;4.438;2022-08-16T11:33:27;30.90;32.50
23560;DHT22;11958;50.836;4.438;2022-08-16T11:36:07;31.00;33.20
23560;DHT22;11958;50.836;4.438;2022-08-16T11:38:33;31.20;33.40
23560;DHT22;11958;50.836;4.438;2022-08-16T11:40:59;31.40;33.00
23560;DHT22;11958;50.836;4.438;2022-08-16T11:43:34;30.80;32.50
23560;DHT22;11958;50.836;4.438;2022-08-16T11:46:11;30.20;34.50
23560;DHT22;11958;50.836;4.438;2022-08-16T11:48:50;29.40;34.10
23560;DHT22;11958;50.836;4.438;2022-08-16T11:51:16;29.50;34.10
23560;DHT22;11958;50.836;4.438;2022-08-16T11:53:41;30.20;33.80
23560;DHT22;11958;50.836;4.438;2022-08-16T11:56:07;29.90;34.60
23560;DHT22;11958;50.836;4.438;2022-08-16T11:58:33;30.20;34.40
23560;DHT22;11958;50.836;4.438;2022-08-16T12:00:59;30.00;33.90
23560;DHT22;11958;50.836;4.438;2022-08-16T12:06:28;30.50;34.00
23560;DHT22;11958;50.836;4.438;2022-08-16T12:09:04;30.90;32.20
23560;DHT22;11958;50.836;4.438;2022-08-16T12:11:50;31.10;31.90
23560;DHT22;11958;50.836;4.438;2022-08-16T12:14:22;31.20;32.30
23560;DHT22;11958;50.836;4.438;2022-08-16T12:16:48;30.90;32.90
23560;DHT22;11958;50.836;4.438;2022-08-16T12:19:13;31.60;31.40
23560;DHT22;11958;50.836;4.438;2022-08-16T12:21:40;32.60;29.80
23560;DHT22;11958;50.836;4.438;2022-08-16T12:24:06;33.10;29.10
23560;DHT22;11958;50.836;4.438;2022-08-16T12:26:38;33.70;27.40
23560;DHT22;11958;50.836;4.438;2022-08-16T12:29:03;34.40;26.40
23560;DHT22;11958;50.836;4.438;2022-08-16T12:31:29;33.60;27.90
23560;DHT22;11958;50.836;4.438;2022-08-16T12:33:55;33.10;28.30
23560;DHT22;11958;50.836;4.438;2022-08-16T12:36:22;33.20;27.70
23560;DHT22;11958;50.836;4.438;2022-08-16T12:38:48;33.10;29.20
23560;DHT22;11958;50.836;4.438;2022-08-16T12:41:14;33.70;28.40
23560;DHT22;11958;50.836;4.438;2022-08-16T12:43:48;33.70;27.10
23560;DHT22;11958;50.836;4.438;2022-08-16T12:46:14;34.20;27.00
23560;DHT22;11958;50.836;4.438;2022-08-16T12:48:40;34.40;26.60
23560;DHT22;11958;50.836;4.438;2022-08-16T12:51:40;34.30;25.20
23560;DHT22;11958;50.836;4.438;2022-08-16T12:54:12;34.60;24.60
23560;DHT22;11958;50.836;4.438;2022-08-16T12:56:49;34.80;24.70
23560;DHT22;11958;50.836;4.438;2022-08-16T12:59:30;34.70;24.30
23560;DHT22;11958;50.836;4.438;2022-08-16T13:02:01;34.30;25.10
23560;DHT22;11958;50.836;4.438;2022-08-16T13:04:39;34.40;25.60
23560;DHT22;11958;50.836;4.438;2022-08-16T13:07:16;35.10;24.00
23560;DHT22;11958;50.836;4.438;2022-08-16T13:09:50;36.30;22.50
23560;DHT22;11958;50.836;4.438;2022-08-16T13:12:25;36.90;22.20
23560;DHT22;11958;50.836;4.438;2022-08-16T13:14:55;37.10;22.20
23560;DHT22;11958;50.836;4.438;2022-08-16T13:17:25;37.00;22.80
23560;DHT22;11958;50.836;4.438;2022-08-16T13:20:32;36.70;21.50
23560;DHT22;11958;50.836;4.438;2022-08-16T13:23:07;37.40;21.20
23560;DHT22;11958;50.836;4.438;2022-08-16T13:25:46;36.40;21.70
23560;DHT22;11958;50.836;4.438;2022-08-16T13:28:20;36.90;21.70
23560;DHT22;11958;50.836;4.438;2022-08-16T13:30:56;37.20;21.60
23560;DHT22;11958;50.836;4.438;2022-08-16T13:33:34;36.00;21.90
23560;DHT22;11958;50.836;4.438;2022-08-16T13:36:10;34.70;23.30
23560;DHT22;11958;50.836;4.438;2022-08-16T13:38:54;34.00;24.60
23560;DHT22;11958;50.836;4.438;2022-08-16T13:41:20;33.70;24.80
23560;DHT22;11958;50.836;4.438;2022-08-16T13:43:46;33.40;26.20
23560;DHT22;11958;50.836;4.438;2022-08-16T13:46:30;33.30;26.30
23560;DHT22;11958;50.836;4.438;2022-08-16T13:48:59;33.30;25.90
23560;DHT22;11958;50.836;4.438;2022-08-16T13:51:49;32.70;27.00
23560;DHT22;11958;50.836;4.438;2022-08-16T13:54:18;32.30;27.70
23560;DHT22;11958;50.836;4.438;2022-08-16T13:56:43;31.90;28.90
23560;DHT22;11958;50.836;4.438;2022-08-16T13:59:13;32.20;26.80
23560;DHT22;11958;50.836;4.438;2022-08-16T14:01:41;32.20;27.10
23560;DHT22;11958;50.836;4.438;2022-08-16T14:04:19;32.50;27.00
23560;DHT22;11958;50.836;4.438;2022-08-16T14:06:57;32.50;28.60
23560;DHT22;11958;50.836;4.438;2022-08-16T14:09:28;32.80;28.10
23560;DHT22;11958;50.836;4.438;2022-08-16T14:12:10;32.50;26.10
23560;DHT22;11958;50.836;4.438;2022-08-16T14:14:38;32.20;27.00
23560;DHT22;11958;50.836;4.438;2022-08-16T14:17:10;32.10;27.70
23560;DHT22;11958;50.836;4.438;2022-08-16T14:19:36;32.10;27.90
23560;DHT22;11958;50.836;4.438;2022-08-16T14:22:04;32.30;28.30
23560;DHT22;11958;50.836;4.438;2022-08-16T14:24:29;32.20;28.00
23560;DHT22;11958;50.836;4.438;2022-08-16T14:27:09;32.00;28.20
23560;DHT22;11958;50.836;4.438;2022-08-16T14:29:39;31.90;27.80
23560;DHT22;11958;50.836;4.438;2022-08-16T14:32:11;31.40;28.90
23560;DHT22;11958;50.836;4.438;2022-08-16T14:35:23;31.10;28.60
23560;DHT22;11958;50.836;4.438;2022-08-16T14:37:49;31.30;29.10
23560;DHT22;11958;50.836;4.438;2022-08-16T14:40:18;31.50;29.10
23560;DHT22;11958;50.836;4.438;2022-08-16T14:42:45;31.80;29.20
23560;DHT22;11958;50.836;4.438;2022-08-16T14:45:21;32.20;26.00
23560;DHT22;11958;50.836;4.438;2022-08-16T14:47:54;33.10;25.50
23560;DHT22;11958;50.836;4.438;2022-08-16T14:50:26;33.20;25.90
23560;DHT22;11958;50.836;4.438;2022-08-16T14:53:08;32.90;26.30
23560;DHT22;11958;50.836;4.438;2022-08-16T14:55:43;32.70;25.80
23560;DHT22;11958;50.836;4.438;2022-08-16T14:58:09;32.50;26.40
23560;DHT22;11958;50.836;4.438;2022-08-16T15:00:34;32.70;25.90
23560;DHT22;11958;50.836;4.438;2022-08-16T15:03:12;33.00;25.20
23560;DHT22;11958;50.836;4.438;2022-08-16T15:05:41;32.80;25.90
23560;DHT22;11958;50.836;4.438;2022-08-16T15:08:15;32.40;26.40
23560;DHT22;11958;50.836;4.438;2022-08-16T15:10:44;31.90;26.50
23560;DHT22;11958;50.836;4.438;2022-08-16T15:13:16;31.40;28.10
23560;DHT22;11958;50.836;4.438;2022-08-16T15:15:50;31.70;27.00
23560;DHT22;11958;50.836;4.438;2022-08-16T15:18:18;31.70;28.90
23560;DHT22;11958;50.836;4.438;2022-08-16T15:20:43;31.60;27.20
23560;DHT22;11958;50.836;4.438;2022-08-16T15:23:09;31.90;25.80
23560;DHT22;11958;50.836;4.438;2022-08-16T15:25:41;31.80;26.30
23560;DHT22;11958;50.836;4.438;2022-08-16T15:28:09;31.90;27.30
23560;DHT22;11958;50.836;4.438;2022-08-16T15:30:35;31.60;28.20
23560;DHT22;11958;50.836;4.438;2022-08-16T15:33:32;31.50;28.40
23560;DHT22;11958;50.836;4.438;2022-08-16T15:36:06;31.90;27.70
23560;DHT22;11958;50.836;4.438;2022-08-16T15:38:47;31.60;26.80
23560;DHT22;11958;50.836;4.438;2022-08-16T15:44:27;31.90;26.90
23560;DHT22;11958;50.836;4.438;2022-08-16T15:47:07;31.50;25.90
23560;DHT22;11958;50.836;4.438;2022-08-16T15:52:43;31.20;28.90
23560;DHT22;11958;50.836;4.438;2022-08-16T15:55:09;31.40;29.30
23560;DHT22;11958;50.836;4.438;2022-08-16T15:57:56;31.70;29.00
23560;DHT22;11958;50.836;4.438;2022-08-16T16:00:39;31.10;27.20
23560;DHT22;11958;50.836;4.438;2022-08-16T16:03:28;31.50;26.60
23560;DHT22;11958;50.836;4.438;2022-08-16T16:06:14;31.30;26.50
23560;DHT22;11958;50.836;4.438;2022-08-16T16:08:47;31.40;27.40
23560;DHT22;11958;50.836;4.438;2022-08-16T16:11:24;31.60;28.30
23560;DHT22;11958;50.836;4.438;2022-08-16T16:13:55;31.70;27.30
23560;DHT22;11958;50.836;4.438;2022-08-16T16:22:34;31.10;27.00
23560;DHT22;11958;50.836;4.438;2022-08-16T16:25:02;31.00;28.70
23560;DHT22;11958;50.836;4.438;2022-08-16T16:27:37;31.10;28.90
23560;DHT22;11958;50.836;4.438;2022-08-16T16:30:11;31.00;27.30
23560;DHT22;11958;50.836;4.438;2022-08-16T16:32:54;30.90;27.30
23560;DHT22;11958;50.836;4.438;2022-08-16T16:35:30;30.80;27.80
23560;DHT22;11958;50.836;4.438;2022-08-16T16:37:59;30.70;28.40
23560;DHT22;11958;50.836;4.438;2022-08-16T16:43:41;30.70;29.20
23560;DHT22;11958;50.836;4.438;2022-08-16T16:46:14;30.50;29.00
23560;DHT22;11958;50.836;4.438;2022-08-16T16:48:41;30.40;30.20
23560;DHT22;11958;50.836;4.438;2022-08-16T16:51:08;30.50;29.90
23560;DHT22;11958;50.836;4.438;2022-08-16T16:53:56;30.40;30.70
23560;DHT22;11958;50.836;4.438;2022-08-16T16:56:23;30.60;30.50
23560;DHT22;11958;50.836;4.438;2022-08-16T16:58:57;30.30;30.70
23560;DHT22;11958;50.836;4.438;2022-08-16T17:01:47;30.30;30.30
23560;DHT22;11958;50.836;4.438;2022-08-16T17:04:28;30.20;30.00
23560;DHT22;11958;50.836;4.438;2022-08-16T17:07:25;29.80;30.70
23560;DHT22;11958;50.836;4.438;2022-08-16T17:09:51;30.00;28.80
23560;DHT22;11958;50.836;4.438;2022-08-16T17:12:18;30.60;27.30
23560;DHT22;11958;50.836;4.438;2022-08-16T17:14:45;30.30;28.60
23560;DHT22;11958;50.836;4.438;2022-08-16T17:17:12;30.30;29.30
23560;DHT22;11958;50.836;4.438;2022-08-16T17:19:38;30.30;29.50
23560;DHT22;11958;50.836;4.438;2022-08-16T17:22:03;29.70;30.00
23560;DHT22;11958;50.836;4.438;2022-08-16T17:24:29;29.40;29.80
23560;DHT22;11958;50.836;4.438;2022-08-16T17:26:55;29.00;30.90